Terminal Aerodrome Forecast
Issued by NWS

Home | Current Version | Previous Version | Text Only | Print | Product List | Glossary Off
Versions: 1 2 3 4 5 6 7 8 9 10 11 12 13 14 15 16 17

000
FTUS43 KMPX 301500 AAA
TAFRWF
TAF AMD
KRWF 301504Z 3015/3112 32009KT 5SM BR BKN004 OVC008
     FM301730 32008KT P6SM SCT008 BKN012 OVC020
     FM301900 32007KT P6SM SCT012 BKN020
     FM302100 31006KT P6SM FEW020 BKN050
     FM310000 15003KT P6SM FEW250
     FM310800 16009KT P6SM BKN200=

USA.gov is the U.S. government's official web portal to all federal, state and local government web resources and services.